Time;durP1;ratioP1;P1;durP2;ratioP2;P2;SDS_P1;SDS_P2;PMS_P1;PMS_P2;Temp;Humidity;BMP_temperature;BMP_pressure;BME280_temperature;BME280_humidity;BME280_pressure;Samples;Min_cycle;Max_cycle;Signal;HPM_P1;HPM_P2
2023/03/27 00:02:14;;;;;;;6.30;4.10;;;;;;;-128.00;-1.00;-1.00;18471;296;7504549;-33
2023/03/27 00:04:41;;;;;;;3.90;2.30;;;;;;;-128.00;-1.00;-1.00;18454;296;7504083;-34
2023/03/27 00:07:08;;;;;;;6.40;3.70;;;;;;;-128.00;-1.00;-1.00;18476;284;7504267;-30
2023/03/27 00:09:33;;;;;;;6.60;5.90;;;;;;;-128.00;-1.00;-1.00;18469;288;7507178;-30
2023/03/27 00:12:00;;;;;;;10.30;7.60;;;;;;;-128.00;-1.00;-1.00;18891;296;7504825;-30
2023/03/27 00:14:26;;;;;;;6.10;4.90;;;;;;;-128.00;-1.00;-1.00;18473;288;7504941;-30
2023/03/27 00:16:52;;;;;;;8.50;5.60;;;;;;;-128.00;-1.00;-1.00;18862;296;7505653;-31
2023/03/27 00:19:18;;;;;;;5.40;4.20;;;;;;;-128.00;-1.00;-1.00;18877;288;7504928;-33
2023/03/27 00:21:44;;;;;;;6.80;4.20;;;;;;;-128.00;-1.00;-1.00;18865;348;7504453;-34
2023/03/27 00:24:11;;;;;;;4.80;3.00;;;;;;;-128.00;-1.00;-1.00;18875;296;7505072;-34
2023/03/27 00:26:39;;;;;;;6.10;3.10;;;;;;;-128.00;-1.00;-1.00;18471;296;7505990;-31
2023/03/27 00:29:06;;;;;;;9.30;3.80;;;;;;;-128.00;-1.00;-1.00;18506;296;7504796;-34
2023/03/27 00:31:32;;;;;;;10.70;5.00;;;;;;;-128.00;-1.00;-1.00;18473;296;7505295;-34
2023/03/27 00:33:57;;;;;;;4.40;3.30;;;;;;;-128.00;-1.00;-1.00;18479;310;7504581;-31
2023/03/27 00:36:23;;;;;;;11.00;6.50;;;;;;;-128.00;-1.00;-1.00;18476;296;7505241;-35
2023/03/27 00:38:51;;;;;;;15.20;6.40;;;;;;;-128.00;-1.00;-1.00;18882;307;7504418;-34
2023/03/27 00:41:19;;;;;;;15.20;7.50;;;;;;;-128.00;-1.00;-1.00;18490;296;7504855;-30
2023/03/27 00:43:46;;;;;;;24.50;8.60;;;;;;;-128.00;-1.00;-1.00;18471;288;7505845;-33
2023/03/27 00:46:37;;;;;;;17.10;6.40;;;;;;;-128.00;-1.00;-1.00;18445;296;7505399;-31
2023/03/27 00:49:05;;;;;;;7.60;3.70;;;;;;;-128.00;-1.00;-1.00;18455;296;7504650;-34
2023/03/27 00:51:30;;;;;;;18.00;9.30;;;;;;;-128.00;-1.00;-1.00;18463;296;7506269;-30
2023/03/27 00:53:56;;;;;;;19.60;9.50;;;;;;;-128.00;-1.00;-1.00;18461;285;7506659;-32
2023/03/27 00:56:22;;;;;;;17.20;8.30;;;;;;;-128.00;-1.00;-1.00;18492;296;7506286;-30
2023/03/27 00:58:50;;;;;;;21.80;8.60;;;;;;;-128.00;-1.00;-1.00;18477;296;7506346;-31
2023/03/27 01:01:16;;;;;;;54.00;16.40;;;;;;;-128.00;-1.00;-1.00;18473;296;7504866;-30
2023/03/27 01:03:44;;;;;;;20.80;10.30;;;;;;;-128.00;-1.00;-1.00;18466;343;7505496;-35
2023/03/27 01:06:09;;;;;;;41.20;16.60;;;;;;;-128.00;-1.00;-1.00;18491;285;7506542;-32
2023/03/27 01:08:36;;;;;;;33.00;13.10;;;;;;;-128.00;-1.00;-1.00;18478;296;7505045;-34
2023/03/27 01:11:34;;;;;;;22.70;11.10;;;;;;;-128.00;-1.00;-1.00;18479;348;7505224;-33
2023/03/27 01:14:23;;;;;;;14.20;7.20;;;;;;;-128.00;-1.00;-1.00;18489;285;7506000;-33
2023/03/27 01:17:05;;;;;;;9.60;5.00;;;;;;;-128.00;-1.00;-1.00;18489;285;7504772;-32
2023/03/27 01:19:43;;;;;;;6.10;3.80;;;;;;;-128.00;-1.00;-1.00;18488;289;7506013;-34
2023/03/27 01:22:33;;;;;;;5.30;3.70;;;;;;;-128.00;-1.00;-1.00;18500;316;7504485;-34
2023/03/27 01:25:22;;;;;;;4.80;4.30;;;;;;;-128.00;-1.00;-1.00;18482;289;7506304;-30
2023/03/27 01:28:11;;;;;;;4.70;4.30;;;;;;;-128.00;-1.00;-1.00;18450;297;7506090;-31
2023/03/27 01:30:50;;;;;;;8.60;6.30;;;;;;;-128.00;-1.00;-1.00;18471;288;7504452;-30
2023/03/27 01:33:33;;;;;;;9.70;6.40;;;;;;;-128.00;-1.00;-1.00;18495;296;7506122;-30
2023/03/27 01:36:12;;;;;;;3.90;3.20;;;;;;;-128.00;-1.00;-1.00;18500;296;7504998;-32
2023/03/27 01:39:17;;;;;;;3.90;2.90;;;;;;;-128.00;-1.00;-1.00;18493;296;7506689;-35
2023/03/27 01:41:54;;;;;;;4.10;2.90;;;;;;;-128.00;-1.00;-1.00;18485;296;7504920;-30
2023/03/27 01:44:38;;;;;;;5.60;2.60;;;;;;;-128.00;-1.00;-1.00;18508;298;7507005;-35
2023/03/27 01:47:13;;;;;;;4.40;1.70;;;;;;;-128.00;-1.00;-1.00;18474;289;7506172;-31
2023/03/27 01:49:41;;;;;;;4.70;2.30;;;;;;;-128.00;-1.00;-1.00;18478;288;7504459;-35
2023/03/27 01:52:11;;;;;;;9.10;4.80;;;;;;;-128.00;-1.00;-1.00;18507;348;7504742;-30
2023/03/27 01:54:38;;;;;;;2.00;1.60;;;;;;;-128.00;-1.00;-1.00;18478;349;7505007;-29
2023/03/27 01:57:19;;;;;;;4.90;3.30;;;;;;;-128.00;-1.00;-1.00;18476;289;7504450;-34
2023/03/27 01:59:46;;;;;;;3.90;3.00;;;;;;;-128.00;-1.00;-1.00;18496;329;7506042;-30
2023/03/27 02:02:16;;;;;;;2.60;2.00;;;;;;;-128.00;-1.00;-1.00;18456;296;7505731;-30
2023/03/27 02:04:45;;;;;;;2.30;1.90;;;;;;;-128.00;-1.00;-1.00;18463;297;7506029;-31
2023/03/27 02:07:13;;;;;;;4.80;2.80;;;;;;;-128.00;-1.00;-1.00;18488;289;7505750;-31
2023/03/27 02:09:48;;;;;;;5.20;2.30;;;;;;;-128.00;-1.00;-1.00;18485;300;7504247;-34
2023/03/27 02:12:18;;;;;;;5.30;4.00;;;;;;;-128.00;-1.00;-1.00;18484;296;7504616;-34
2023/03/27 02:14:50;;;;;;;7.00;5.20;;;;;;;-128.00;-1.00;-1.00;18488;289;7504795;-30
2023/03/27 02:17:15;;;;;;;11.80;4.60;;;;;;;-128.00;-1.00;-1.00;18439;349;7504336;-30
2023/03/27 02:19:57;;;;;;;3.10;2.50;;;;;;;-128.00;-1.00;-1.00;18469;296;7504976;-29
2023/03/27 02:22:25;;;;;;;4.00;2.80;;;;;;;-128.00;-1.00;-1.00;18489;296;7504572;-34
2023/03/27 02:24:54;;;;;;;3.90;3.40;;;;;;;-128.00;-1.00;-1.00;18457;289;7504258;-34
2023/03/27 02:27:26;;;;;;;6.30;2.20;;;;;;;-128.00;-1.00;-1.00;18451;285;7504401;-30
2023/03/27 02:29:59;;;;;;;2.80;2.50;;;;;;;-128.00;-1.00;-1.00;18487;296;7504808;-31
2023/03/27 02:32:42;;;;;;;4.10;2.80;;;;;;;-128.00;-1.00;-1.00;18476;296;7504815;-34
2023/03/27 02:35:20;;;;;;;6.30;3.80;;;;;;;-128.00;-1.00;-1.00;18470;336;7505194;-31
2023/03/27 02:38:08;;;;;;;2.50;1.40;;;;;;;-128.00;-1.00;-1.00;18502;319;7506407;-31
2023/03/27 02:40:39;;;;;;;3.00;1.50;;;;;;;-128.00;-1.00;-1.00;18478;296;7504862;-35
2023/03/27 02:43:10;;;;;;;6.30;5.00;;;;;;;-128.00;-1.00;-1.00;18451;296;7504073;-29
2023/03/27 02:45:51;;;;;;;9.10;6.30;;;;;;;-128.00;-1.00;-1.00;18467;288;7506055;-33
2023/03/27 02:48:33;;;;;;;4.90;1.10;;;;;;;-128.00;-1.00;-1.00;18458;325;7506656;-33
2023/03/27 02:51:04;;;;;;;4.10;3.50;;;;;;;-128.00;-1.00;-1.00;18467;296;7507132;-32
2023/03/27 02:53:34;;;;;;;7.40;5.10;;;;;;;-128.00;-1.00;-1.00;18463;308;7504671;-32
2023/03/27 02:56:00;;;;;;;4.10;2.40;;;;;;;-128.00;-1.00;-1.00;18480;289;7504590;-33
2023/03/27 02:58:43;;;;;;;4.90;2.30;;;;;;;-128.00;-1.00;-1.00;18470;285;7504898;-29
2023/03/27 03:01:09;;;;;;;3.90;2.20;;;;;;;-128.00;-1.00;-1.00;18447;298;7506279;-37
2023/03/27 03:03:43;;;;;;;6.30;3.40;;;;;;;-128.00;-1.00;-1.00;18531;296;7506173;-32
2023/03/27 03:06:09;;;;;;;3.60;2.70;;;;;;;-128.00;-1.00;-1.00;18461;296;7504422;-31
2023/03/27 03:08:39;;;;;;;8.80;3.00;;;;;;;-128.00;-1.00;-1.00;18459;296;7504930;-30
2023/03/27 03:11:09;;;;;;;5.80;4.50;;;;;;;-128.00;-1.00;-1.00;18450;289;7504807;-31
2023/03/27 03:13:36;;;;;;;6.50;5.20;;;;;;;-128.00;-1.00;-1.00;18478;285;7504868;-34
2023/03/27 03:16:01;;;;;;;8.30;4.30;;;;;;;-128.00;-1.00;-1.00;18446;289;7507214;-34
2023/03/27 03:18:27;;;;;;;11.00;4.30;;;;;;;-128.00;-1.00;-1.00;18457;286;7504826;-34
2023/03/27 03:20:53;;;;;;;10.80;6.00;;;;;;;-128.00;-1.00;-1.00;18881;348;7505030;-31
2023/03/27 03:23:21;;;;;;;8.20;5.60;;;;;;;-128.00;-1.00;-1.00;18872;296;7504560;-30
2023/03/27 03:25:51;;;;;;;3.80;3.20;;;;;;;-128.00;-1.00;-1.00;18470;289;7504239;-34
2023/03/27 03:28:17;;;;;;;4.80;3.40;;;;;;;-128.00;-1.00;-1.00;18483;296;7504220;-35
2023/03/27 03:30:46;;;;;;;5.60;3.70;;;;;;;-128.00;-1.00;-1.00;18483;285;7506730;-31
2023/03/27 03:33:13;;;;;;;4.10;2.90;;;;;;;-128.00;-1.00;-1.00;18470;348;7506074;-31
2023/03/27 03:35:39;;;;;;;2.90;2.10;;;;;;;-128.00;-1.00;-1.00;18465;296;7504478;-34
2023/03/27 03:38:05;;;;;;;6.90;2.70;;;;;;;-128.00;-1.00;-1.00;18483;296;7503986;-33
2023/03/27 03:40:31;;;;;;;10.70;4.20;;;;;;;-128.00;-1.00;-1.00;18472;298;7505931;-31
2023/03/27 03:42:57;;;;;;;5.00;3.30;;;;;;;-128.00;-1.00;-1.00;18458;336;7505183;-30
2023/03/27 03:45:22;;;;;;;7.90;4.60;;;;;;;-128.00;-1.00;-1.00;18462;285;7504694;-34
2023/03/27 03:47:48;;;;;;;13.20;6.80;;;;;;;-128.00;-1.00;-1.00;18472;289;7504202;-34
2023/03/27 03:50:14;;;;;;;18.00;5.50;;;;;;;-128.00;-1.00;-1.00;18476;342;7504430;-30
2023/03/27 03:52:40;;;;;;;10.10;6.80;;;;;;;-128.00;-1.00;-1.00;18472;285;7506047;-34
2023/03/27 03:55:08;;;;;;;13.90;7.00;;;;;;;-128.00;-1.00;-1.00;18454;296;7505794;-34
2023/03/27 03:57:35;;;;;;;9.10;6.00;;;;;;;-128.00;-1.00;-1.00;18472;348;7504363;-34
2023/03/27 04:00:05;;;;;;;8.70;7.30;;;;;;;-128.00;-1.00;-1.00;18462;296;7506408;-31
2023/03/27 04:02:31;;;;;;;11.50;7.90;;;;;;;-128.00;-1.00;-1.00;18505;296;7504676;-34
2023/03/27 04:04:57;;;;;;;8.80;5.90;;;;;;;-128.00;-1.00;-1.00;18501;296;7506165;-34
2023/03/27 04:07:24;;;;;;;18.00;7.20;;;;;;;-128.00;-1.00;-1.00;18456;296;7506547;-30
2023/03/27 04:09:50;;;;;;;16.70;8.70;;;;;;;-128.00;-1.00;-1.00;18463;289;7504176;-31
2023/03/27 04:12:16;;;;;;;22.40;9.20;;;;;;;-128.00;-1.00;-1.00;18476;297;7506151;-33
2023/03/27 04:14:42;;;;;;;21.10;10.00;;;;;;;-128.00;-1.00;-1.00;18472;285;7504575;-35
2023/03/27 04:17:08;;;;;;;21.30;9.50;;;;;;;-128.00;-1.00;-1.00;18460;297;7506054;-31
2023/03/27 04:19:34;;;;;;;17.10;10.10;;;;;;;-128.00;-1.00;-1.00;18456;285;7504564;-34
2023/03/27 04:22:03;;;;;;;19.60;11.20;;;;;;;-128.00;-1.00;-1.00;18459;296;7506125;-34
2023/03/27 04:24:32;;;;;;;16.20;8.40;;;;;;;-128.00;-1.00;-1.00;18489;324;7506218;-34
2023/03/27 04:27:00;;;;;;;28.60;15.90;;;;;;;-128.00;-1.00;-1.00;18474;289;7506243;-31
2023/03/27 04:29:29;;;;;;;20.70;12.50;;;;;;;-128.00;-1.00;-1.00;18471;289;7504486;-30
2023/03/27 04:31:56;;;;;;;40.20;18.40;;;;;;;-128.00;-1.00;-1.00;18464;289;7506048;-30
2023/03/27 04:34:22;;;;;;;36.30;18.00;;;;;;;-128.00;-1.00;-1.00;18451;289;7504617;-33
2023/03/27 05:14:33;;;;;;;33.90;18.80;;;;;;;-101.77;19.20;19577.17;19579;303;8044474;-31
2023/03/27 05:17:00;;;;;;;37.80;17.90;;;;;;;-128.00;-1.00;-1.00;18166;289;7504837;-34
2023/03/27 05:19:26;;;;;;;24.50;12.10;;;;;;;-128.00;-1.00;-1.00;18881;295;7506464;-31
2023/03/27 05:21:52;;;;;;;37.40;14.00;;;;;;;-128.00;-1.00;-1.00;18879;295;7505823;-32
2023/03/27 05:24:18;;;;;;;20.10;10.00;;;;;;;-128.00;-1.00;-1.00;18453;304;7504764;-31
2023/03/27 05:26:44;;;;;;;20.70;9.70;;;;;;;-128.00;-1.00;-1.00;18887;295;7504259;-34
2023/03/27 05:29:11;;;;;;;16.50;7.80;;;;;;;-128.00;-1.00;-1.00;18888;311;7504601;-33
2023/03/27 05:31:37;;;;;;;22.50;8.80;;;;;;;-128.00;-1.00;-1.00;18884;335;7504405;-30
2023/03/27 05:34:04;;;;;;;16.80;7.90;;;;;;;-128.00;-1.00;-1.00;18902;295;7505325;-33
2023/03/27 05:36:30;;;;;;;17.80;9.10;;;;;;;-128.00;-1.00;-1.00;18457;294;7507056;-33
2023/03/27 05:38:56;;;;;;;25.80;12.00;;;;;;;-128.00;-1.00;-1.00;18444;346;7504728;-30
2023/03/27 05:41:23;;;;;;;17.30;10.80;;;;;;;-128.00;-1.00;-1.00;18490;322;7505337;-33
2023/03/27 05:43:49;;;;;;;18.80;10.80;;;;;;;-128.00;-1.00;-1.00;18450;318;7505819;-33
2023/03/27 05:46:15;;;;;;;19.90;6.20;;;;;;;-128.00;-1.00;-1.00;18502;295;7504748;-34
2023/03/27 05:48:41;;;;;;;15.50;6.00;;;;;;;-128.00;-1.00;-1.00;18480;295;7505053;-29
2023/03/27 05:51:08;;;;;;;13.40;4.80;;;;;;;-128.00;-1.00;-1.00;18481;295;7504323;-32
2023/03/27 05:53:36;;;;;;;14.70;4.70;;;;;;;-128.00;-1.00;-1.00;18491;335;7505276;-35
2023/03/27 05:56:03;;;;;;;8.60;3.90;;;;;;;-128.00;-1.00;-1.00;18465;322;7505153;-34
2023/03/27 05:58:28;;;;;;;5.70;4.60;;;;;;;-128.00;-1.00;-1.00;18495;295;7505202;-34
2023/03/27 06:00:54;;;;;;;7.90;3.50;;;;;;;-128.00;-1.00;-1.00;18877;295;7504512;-30
2023/03/27 06:03:22;;;;;;;14.70;3.30;;;;;;;-128.00;-1.00;-1.00;18872;295;7505280;-31
2023/03/27 06:05:48;;;;;;;8.80;5.00;;;;;;;-128.00;-1.00;-1.00;18463;295;7506312;-34
2023/03/27 06:08:14;;;;;;;9.50;3.70;;;;;;;-128.00;-1.00;-1.00;18477;295;7505204;-33
2023/03/27 06:10:40;;;;;;;26.70;5.00;;;;;;;-128.00;-1.00;-1.00;18484;343;7505090;-33
2023/03/27 06:13:08;;;;;;;19.80;4.00;;;;;;;-128.00;-1.00;-1.00;18480;346;7506411;-30
2023/03/27 06:15:36;;;;;;;22.00;6.10;;;;;;;-128.00;-1.00;-1.00;18477;288;7504816;-34
2023/03/27 06:18:02;;;;;;;5.10;3.90;;;;;;;-128.00;-1.00;-1.00;18490;295;7505095;-34
2023/03/27 06:20:28;;;;;;;8.30;4.70;;;;;;;-128.00;-1.00;-1.00;18464;346;7504871;-30
2023/03/27 06:22:55;;;;;;;8.00;3.30;;;;;;;-128.00;-1.00;-1.00;18485;294;7504816;-30
2023/03/27 06:25:22;;;;;;;13.80;2.90;;;;;;;-128.00;-1.00;-1.00;18488;343;7505582;-33
2023/03/27 06:27:48;;;;;;;7.90;3.00;;;;;;;-128.00;-1.00;-1.00;18489;295;7506009;-30
2023/03/27 06:30:16;;;;;;;15.00;3.30;;;;;;;-128.00;-1.00;-1.00;18458;295;7504977;-30
2023/03/27 06:32:45;;;;;;;11.20;2.20;;;;;;;-128.00;-1.00;-1.00;18457;335;7504367;-30
2023/03/27 06:35:13;;;;;;;12.70;3.10;;;;;;;-128.00;-1.00;-1.00;18507;294;7506439;-34
2023/03/27 06:37:40;;;;;;;16.70;3.20;;;;;;;-128.00;-1.00;-1.00;18447;295;7505978;-33
2023/03/27 06:40:09;;;;;;;4.90;1.40;;;;;;;-128.00;-1.00;-1.00;18479;295;7505907;-30
2023/03/27 06:42:35;;;;;;;5.10;1.60;;;;;;;-128.00;-1.00;-1.00;18439;347;7504712;-31
2023/03/27 06:45:03;;;;;;;2.20;1.40;;;;;;;-128.00;-1.00;-1.00;18478;303;7504488;-31
2023/03/27 06:47:29;;;;;;;12.90;1.30;;;;;;;-128.00;-1.00;-1.00;18474;294;7504442;-34
2023/03/27 06:49:55;;;;;;;4.30;1.40;;;;;;;-128.00;-1.00;-1.00;18887;295;7504699;-30
2023/03/27 06:52:21;;;;;;;7.20;2.50;;;;;;;-128.00;-1.00;-1.00;18479;295;7504718;-29
2023/03/27 06:54:47;;;;;;;3.10;2.10;;;;;;;-128.00;-1.00;-1.00;18482;296;7505136;-35
2023/03/27 06:57:14;;;;;;;6.30;1.60;;;;;;;-128.00;-1.00;-1.00;18482;287;7506112;-30
2023/03/27 06:59:40;;;;;;;3.20;2.20;;;;;;;-128.00;-1.00;-1.00;18475;335;7504295;-31
2023/03/27 07:02:07;;;;;;;5.40;1.60;;;;;;;-128.00;-1.00;-1.00;18493;311;7505993;-31
2023/03/27 07:04:33;;;;;;;3.80;2.50;;;;;;;-128.00;-1.00;-1.00;18469;294;7504786;-31
2023/03/27 07:06:59;;;;;;;2.30;2.00;;;;;;;-128.00;-1.00;-1.00;18461;295;7505233;-31
2023/03/27 07:09:25;;;;;;;4.10;2.10;;;;;;;-128.00;-1.00;-1.00;18486;295;7504768;-32
2023/03/27 07:11:51;;;;;;;3.40;2.20;;;;;;;-128.00;-1.00;-1.00;18915;295;7506827;-30
2023/03/27 07:14:17;;;;;;;5.40;3.20;;;;;;;-128.00;-1.00;-1.00;18869;294;7504603;-30
2023/03/27 07:16:43;;;;;;;8.30;3.40;;;;;;;-128.00;-1.00;-1.00;18880;318;7504588;-30
2023/03/27 07:19:10;;;;;;;3.80;2.50;;;;;;;-128.00;-1.00;-1.00;18879;347;7504451;-30
2023/03/27 07:21:36;;;;;;;4.20;2.30;;;;;;;-128.00;-1.00;-1.00;18899;295;7504607;-30
2023/03/27 07:24:02;;;;;;;5.60;2.80;;;;;;;-128.00;-1.00;-1.00;18875;295;7504302;-34
2023/03/27 07:26:29;;;;;;;7.60;3.50;;;;;;;-128.00;-1.00;-1.00;18468;295;7504398;-34
2023/03/27 07:28:55;;;;;;;5.00;2.50;;;;;;;-128.00;-1.00;-1.00;18480;346;7505949;-34
2023/03/27 07:31:21;;;;;;;4.90;3.00;;;;;;;-128.00;-1.00;-1.00;18462;295;7504486;-41
2023/03/27 07:33:47;;;;;;;4.80;2.40;;;;;;;-128.00;-1.00;-1.00;18917;295;7504516;-30
2023/03/27 07:36:13;;;;;;;4.10;2.10;;;;;;;-128.00;-1.00;-1.00;18891;294;7505260;-33
2023/03/27 07:38:41;;;;;;;9.80;3.80;;;;;;;-128.00;-1.00;-1.00;18885;295;7504128;-31
2023/03/27 07:41:08;;;;;;;3.10;1.90;;;;;;;-128.00;-1.00;-1.00;18492;295;7504588;-35
2023/03/27 07:43:34;;;;;;;4.90;4.00;;;;;;;-128.00;-1.00;-1.00;18478;337;7507745;-36
2023/03/27 07:46:00;;;;;;;12.40;2.70;;;;;;;-128.00;-1.00;-1.00;18477;294;7505954;-35
2023/03/27 07:48:26;;;;;;;5.50;3.00;;;;;;;-128.00;-1.00;-1.00;18469;310;7506170;-31
2023/03/27 07:50:56;;;;;;;4.00;1.40;;;;;;;-128.00;-1.00;-1.00;18449;287;7505975;-35
2023/03/27 07:53:22;;;;;;;2.80;0.90;;;;;;;-128.00;-1.00;-1.00;18494;295;7504788;-31
2023/03/27 07:55:51;;;;;;;5.50;1.40;;;;;;;-128.00;-1.00;-1.00;18856;294;7505424;-31
2023/03/27 07:58:20;;;;;;;4.60;1.10;;;;;;;-128.00;-1.00;-1.00;18489;295;7505795;-31
2023/03/27 08:00:50;;;;;;;1.60;1.00;;;;;;;-128.00;-1.00;-1.00;18503;295;7506392;-35
2023/03/27 08:03:17;;;;;;;1.70;1.10;;;;;;;-128.00;-1.00;-1.00;18467;347;7505345;-31
2023/03/27 08:05:43;;;;;;;2.00;1.50;;;;;;;-128.00;-1.00;-1.00;18479;307;7504978;-34
2023/03/27 08:08:09;;;;;;;2.60;2.00;;;;;;;-128.00;-1.00;-1.00;18507;295;7505373;-35
2023/03/27 08:10:36;;;;;;;4.60;2.90;;;;;;;-128.00;-1.00;-1.00;18487;295;7504163;-30
2023/03/27 08:13:02;;;;;;;3.80;2.30;;;;;;;-128.00;-1.00;-1.00;18482;298;7504312;-33
2023/03/27 08:15:28;;;;;;;4.80;2.50;;;;;;;-128.00;-1.00;-1.00;18498;310;7504586;-31
2023/03/27 08:17:55;;;;;;;5.20;2.70;;;;;;;-128.00;-1.00;-1.00;18493;311;7504168;-30
2023/03/27 08:20:22;;;;;;;2.30;2.00;;;;;;;-128.00;-1.00;-1.00;18473;346;7504717;-29
2023/03/27 08:22:50;;;;;;;3.80;1.50;;;;;;;-128.00;-1.00;-1.00;18465;283;7505097;-30
2023/03/27 08:25:17;;;;;;;2.70;1.90;;;;;;;-128.00;-1.00;-1.00;18488;296;7505270;-29
2023/03/27 08:27:44;;;;;;;2.40;2.10;;;;;;;-128.00;-1.00;-1.00;18459;303;7504453;-29
2023/03/27 08:30:11;;;;;;;2.20;1.80;;;;;;;-128.00;-1.00;-1.00;18470;295;7505243;-34
2023/03/27 08:32:40;;;;;;;2.20;1.40;;;;;;;-128.00;-1.00;-1.00;18456;323;7506096;-34
2023/03/27 08:35:06;;;;;;;5.50;2.60;;;;;;;-128.00;-1.00;-1.00;18501;295;7504486;-29
2023/03/27 08:37:33;;;;;;;3.70;1.90;;;;;;;-128.00;-1.00;-1.00;18464;347;7506168;-36
2023/03/27 08:40:00;;;;;;;3.20;2.10;;;;;;;-128.00;-1.00;-1.00;18474;339;7506772;-31
2023/03/27 08:42:33;;;;;;;8.90;2.40;;;;;;;-128.00;-1.00;-1.00;18486;316;7505918;-36
2023/03/27 08:44:59;;;;;;;;;;;;;;;-128.00;-1.00;-1.00;18474;319;7506130;-32
2023/03/27 08:47:32;;;;;;;1.70;1.40;;;;;;;-128.00;-1.00;-1.00;18480;295;7504526;-32
2023/03/27 08:49:57;;;;;;;1.60;1.20;;;;;;;-128.00;-1.00;-1.00;18476;295;7505870;-32
2023/03/27 08:52:24;;;;;;;2.40;2.20;;;;;;;-128.00;-1.00;-1.00;18495;295;7504464;-32
2023/03/27 08:54:58;;;;;;;3.80;2.10;;;;;;;-128.00;-1.00;-1.00;18486;295;7504358;-32
2023/03/27 08:57:27;;;;;;;3.10;2.30;;;;;;;-128.00;-1.00;-1.00;18465;330;7504811;-31
2023/03/27 08:59:58;;;;;;;2.90;1.70;;;;;;;-128.00;-1.00;-1.00;18469;294;7504507;-33
2023/03/27 09:02:44;;;;;;;1.60;1.30;;;;;;;-128.00;-1.00;-1.00;18474;295;7504935;-38
2023/03/27 09:05:17;;;;;;;4.60;1.40;;;;;;;-128.00;-1.00;-1.00;18492;295;7506809;-33
2023/03/27 09:07:48;;;;;;;5.30;2.30;;;;;;;-128.00;-1.00;-1.00;18469;335;7504487;-37
2023/03/27 09:10:38;;;;;;;2.80;2.30;;;;;;;-128.00;-1.00;-1.00;18464;295;7504863;-36
2023/03/27 09:13:21;;;;;;;0.60;0.50;;;;;;;-128.00;-1.00;-1.00;18464;295;7504871;-32
2023/03/27 09:16:03;;;;;;;2.10;1.30;;;;;;;-128.00;-1.00;-1.00;18463;347;7505007;-36
2023/03/27 09:18:33;;;;;;;2.10;1.30;;;;;;;-128.00;-1.00;-1.00;18499;294;7505785;-35
2023/03/27 09:21:06;;;;;;;7.90;2.60;;;;;;;-128.00;-1.00;-1.00;18476;288;7505038;-31
2023/03/27 09:23:45;;;;;;;6.30;1.10;;;;;;;-128.00;-1.00;-1.00;18468;295;7505047;-32
2023/03/27 09:26:20;;;;;;;4.30;2.10;;;;;;;-128.00;-1.00;-1.00;18490;295;7506011;-35
2023/03/27 09:28:52;;;;;;;6.00;1.40;;;;;;;-128.00;-1.00;-1.00;18466;294;7504566;-31
2023/03/27 09:31:23;;;;;;;1.70;0.80;;;;;;;-128.00;-1.00;-1.00;18473;299;7504612;-36
2023/03/27 09:33:49;;;;;;;7.40;1.60;;;;;;;-128.00;-1.00;-1.00;18480;296;7504360;-35
2023/03/27 09:36:14;;;;;;;2.30;1.00;;;;;;;-128.00;-1.00;-1.00;18481;295;7504325;-32
2023/03/27 09:38:43;;;;;;;4.60;1.70;;;;;;;-128.00;-1.00;-1.00;18473;288;7506155;-36
2023/03/27 09:41:24;;;;;;;2.20;1.20;;;;;;;-128.00;-1.00;-1.00;18452;307;7506027;-36
2023/03/27 09:43:55;;;;;;;2.10;1.00;;;;;;;-128.00;-1.00;-1.00;18445;295;7504411;-31
2023/03/27 09:46:22;;;;;;;3.90;0.90;;;;;;;-128.00;-1.00;-1.00;18462;288;7505066;-32
2023/03/27 09:48:55;;;;;;;4.10;1.50;;;;;;;-128.00;-1.00;-1.00;18438;294;7505826;-35
2023/03/27 09:51:36;;;;;;;1.60;0.70;;;;;;;-128.00;-1.00;-1.00;18478;295;7504825;-35
2023/03/27 09:54:02;;;;;;;1.50;1.10;;;;;;;-128.00;-1.00;-1.00;18468;295;7504623;-31
2023/03/27 09:56:28;;;;;;;1.30;0.80;;;;;;;-128.00;-1.00;-1.00;18483;294;7505835;-33
2023/03/27 09:58:54;;;;;;;1.90;0.70;;;;;;;-128.00;-1.00;-1.00;18478;295;7505984;-30
2023/03/27 10:01:27;;;;;;;1.50;0.90;;;;;;;-128.00;-1.00;-1.00;18485;294;7505617;-34
2023/03/27 10:03:55;;;;;;;0.60;0.60;;;;;;;-128.00;-1.00;-1.00;18437;296;7504723;-34
2023/03/27 10:06:37;;;;;;;1.30;0.90;;;;;;;-128.00;-1.00;-1.00;18475;295;7504327;-39
2023/03/27 10:09:18;;;;;;;2.70;1.10;;;;;;;-128.00;-1.00;-1.00;18467;295;7504541;-31
2023/03/27 10:11:43;;;;;;;2.50;1.30;;;;;;;-128.00;-1.00;-1.00;18452;347;7505073;-30
2023/03/27 10:14:14;;;;;;;1.70;0.70;;;;;;;-128.00;-1.00;-1.00;18496;295;7504632;-30
2023/03/27 10:16:40;;;;;;;1.10;0.70;;;;;;;-128.00;-1.00;-1.00;18489;295;7506656;-34
2023/03/27 10:19:17;;;;;;;1.70;0.60;;;;;;;-128.00;-1.00;-1.00;18464;295;7504894;-34
2023/03/27 10:21:43;;;;;;;0.40;0.30;;;;;;;-128.00;-1.00;-1.00;18481;295;7504640;-30
2023/03/27 10:24:25;;;;;;;1.90;1.00;;;;;;;-128.00;-1.00;-1.00;18475;295;7507451;-34
2023/03/27 10:26:52;;;;;;;1.60;0.30;;;;;;;-128.00;-1.00;-1.00;18485;295;7506888;-34
2023/03/27 10:29:33;;;;;;;2.00;0.70;;;;;;;-128.00;-1.00;-1.00;18471;295;7504630;-30
2023/03/27 10:32:00;;;;;;;0.70;0.50;;;;;;;-128.00;-1.00;-1.00;18472;295;7504672;-30
2023/03/27 10:34:31;;;;;;;3.30;1.10;;;;;;;-128.00;-1.00;-1.00;18466;297;7504658;-34
2023/03/27 10:36:57;;;;;;;1.70;1.00;;;;;;;-128.00;-1.00;-1.00;18475;295;7504398;-31
2023/03/27 10:39:27;;;;;;;0.90;0.80;;;;;;;-128.00;-1.00;-1.00;18502;295;7504522;-34
2023/03/27 10:41:53;;;;;;;10.70;1.30;;;;;;;-128.00;-1.00;-1.00;18475;295;7506587;-29
2023/03/27 10:44:19;;;;;;;2.30;1.40;;;;;;;-128.00;-1.00;-1.00;18459;295;7505003;-30
2023/03/27 10:46:45;;;;;;;2.20;0.90;;;;;;;-128.00;-1.00;-1.00;18476;335;7505487;-30
2023/03/27 10:49:27;;;;;;;2.40;1.20;;;;;;;-128.00;-1.00;-1.00;18453;294;7505065;-31
2023/03/27 10:52:08;;;;;;;1.00;0.70;;;;;;;-128.00;-1.00;-1.00;18469;296;7506013;-34
2023/03/27 10:54:45;;;;;;;2.10;0.90;;;;;;;-128.00;-1.00;-1.00;18480;283;7505423;-33
2023/03/27 10:57:15;;;;;;;2.50;1.40;;;;;;;-128.00;-1.00;-1.00;18465;295;7506307;-34
2023/03/27 10:59:49;;;;;;;3.40;1.30;;;;;;;-128.00;-1.00;-1.00;18481;294;7505009;-29
2023/03/27 11:02:19;;;;;;;1.80;0.80;;;;;;;-128.00;-1.00;-1.00;18464;294;7505296;-30
2023/03/27 11:46:31;;;;;;;1.20;0.60;;;;;;;-102.04;14.60;19709.42;98324;284;1543389;-33
2023/03/27 11:49:26;;;;;;;4.30;0.90;;;;;;;-128.00;-1.00;-1.00;97579;295;1498416;-29
2023/03/27 11:52:11;;;;;;;2.40;0.60;;;;;;;-128.00;-1.00;-1.00;97851;295;1003435;-30
2023/03/27 11:55:05;;;;;;;1.10;0.50;;;;;;;-128.00;-1.00;-1.00;97925;295;1005277;-29
2023/03/27 11:57:37;;;;;;;1.50;0.70;;;;;;;-128.00;-1.00;-1.00;97970;285;1003280;-29
2023/03/27 12:00:15;;;;;;;1.10;0.50;;;;;;;-128.00;-1.00;-1.00;97876;295;1003026;-29
2023/03/27 12:02:58;;;;;;;1.90;0.70;;;;;;;-128.00;-1.00;-1.00;97794;296;1002797;-33
2023/03/27 12:05:37;;;;;;;1.60;0.80;;;;;;;-128.00;-1.00;-1.00;98002;295;1003121;-30
2023/03/27 12:08:26;;;;;;;1.40;0.40;;;;;;;-128.00;-1.00;-1.00;97952;295;1002983;-33
2023/03/27 12:10:52;;;;;;;2.00;0.60;;;;;;;-128.00;-1.00;-1.00;78572;295;6605377;-30
2023/03/27 12:13:33;;;;;;;2.00;1.80;;;;;;;-128.00;-1.00;-1.00;23179;339;7504776;-29
2023/03/27 12:16:23;;;;;;;2.20;1.40;;;;;;;-128.00;-1.00;-1.00;18497;296;7504833;-29
2023/03/27 12:19:16;;;;;;;8.30;1.20;;;;;;;-128.00;-1.00;-1.00;18503;318;7505047;-33
2023/03/27 12:22:05;;;;;;;1.80;1.00;;;;;;;-128.00;-1.00;-1.00;18522;318;7506269;-30
2023/03/27 12:24:44;;;;;;;1.00;0.80;;;;;;;-128.00;-1.00;-1.00;18494;335;7504659;-30
2023/03/27 12:27:36;;;;;;;2.10;1.10;;;;;;;-128.00;-1.00;-1.00;18475;295;7505494;-31
2023/03/27 12:30:22;;;;;;;0.70;0.60;;;;;;;-128.00;-1.00;-1.00;18470;310;7504703;-34
2023/03/27 12:33:04;;;;;;;1.40;0.50;;;;;;;-128.00;-1.00;-1.00;18502;346;7504684;-31
2023/03/27 12:35:31;;;;;;;5.80;0.60;;;;;;;-128.00;-1.00;-1.00;18465;295;7504074;-35
2023/03/27 12:38:00;;;;;;;3.60;0.80;;;;;;;-128.00;-1.00;-1.00;18468;295;7507229;-30
2023/03/27 12:40:29;;;;;;;2.10;0.40;;;;;;;-128.00;-1.00;-1.00;18481;295;7504917;-31
2023/03/27 12:43:22;;;;;;;0.50;0.30;;;;;;;-128.00;-1.00;-1.00;18472;295;7504112;-31
2023/03/27 12:46:06;;;;;;;1.10;0.80;;;;;;;-128.00;-1.00;-1.00;18471;295;7504764;-34
2023/03/27 12:48:32;;;;;;;0.70;0.50;;;;;;;-128.00;-1.00;-1.00;18481;295;7505993;-34
2023/03/27 12:52:20;;;;;;;1.40;0.50;;;;;;;;;;101269;293;543729;-30
2023/03/27 12:54:57;;;;;;;1.90;0.80;;;;;;;;;;101461;294;22579;-33
2023/03/27 12:57:23;;;;;;;1.10;0.30;;;;;;;;;;101424;295;22655;-30
2023/03/27 12:59:50;;;;;;;0.90;0.50;;;;;;;;;;101489;295;24256;-29
2023/03/27 13:02:27;;;;;;;0.70;0.30;;;;;;;;;;101469;294;22577;-34
2023/03/27 13:05:05;;;;;;;0.80;0.50;;;;;;;;;;101052;294;565065;-31
2023/03/27 13:07:43;;;;;;;1.10;0.20;;;;;;;;;;101584;292;22584;-35
2023/03/27 13:10:21;;;;;;;1.40;0.50;;;;;;;;;;101584;292;24141;-33
2023/03/27 13:12:52;;;;;;;0.90;0.50;;;;;;;;;;101588;292;22633;-29
2023/03/27 13:15:30;;;;;;;2.30;0.80;;;;;;;;;;101733;292;24255;-33